GFA185 OBBI-OTHH
Flight info
| Callsign | GFA185 |
|---|---|
| Flight time | 0h 59m |
| Altitude | 11000 |
| Route | BHR DCT ASTAD N318 LUBET DCT HAYYA |
| Aircraft | A333/H-SDE3GHIJ2J3J5M1RVWXY/LB2D1 |
Departure
| Time | 2026-05-08 12:41 |
|---|---|
| Airport | Bahrain International Airport (OBBI) |
Arrival
| Time | 2026-05-08 13:40 |
|---|---|
| Airport | Hamad International Airport (OTHH) |
| Time | Latitude | Longitude | Altitude | Speed | Heading |
|---|---|---|---|---|---|
| 2026-05-08 12:25 | 26.27143 | 50.62505 | 18 ft | 0 kts | 214° |
| 2026-05-08 12:31 | 26.27145 | 50.62506 | 19 ft | 2 kts | 214° |
| 2026-05-08 12:32 | 26.27157 | 50.62513 | 18 ft | 4 kts | 213° |
| 2026-05-08 12:32 | 26.27179 | 50.62530 | 18 ft | 4 kts | 212° |
| 2026-05-08 12:32 | 26.27202 | 50.62545 | 19 ft | 4 kts | 200° |
| 2026-05-08 12:32 | 26.27225 | 50.62547 | 18 ft | 4 kts | 146° |
| 2026-05-08 12:33 | 26.27242 | 50.62528 | 18 ft | 1 kts | 122° |
| 2026-05-08 12:33 | 26.27242 | 50.62527 | 18 ft | 1 kts | 122° |
| 2026-05-08 12:37 | 26.27221 | 50.62605 | 18 ft | 19 kts | 80° |
| 2026-05-08 12:37 | 26.27252 | 50.62832 | 19 ft | 41 kts | 92° |
| 2026-05-08 12:37 | 26.27170 | 50.63209 | 17 ft | 58 kts | 122° |
| 2026-05-08 12:37 | 26.26953 | 50.63586 | 16 ft | 57 kts | 123° |
| 2026-05-08 12:38 | 26.26729 | 50.63934 | 18 ft | 53 kts | 124° |
| 2026-05-08 12:38 | 26.26558 | 50.64267 | 16 ft | 37 kts | 135° |
| 2026-05-08 12:38 | 26.26398 | 50.64281 | 17 ft | 23 kts | 176° |
| 2026-05-08 12:38 | 26.26286 | 50.64403 | 15 ft | 24 kts | 127° |
| 2026-05-08 12:39 | 26.26186 | 50.64561 | 16 ft | 26 kts | 123° |
| 2026-05-08 12:39 | 26.26085 | 50.64733 | 17 ft | 25 kts | 123° |
| 2026-05-08 12:39 | 26.26024 | 50.64907 | 18 ft | 25 kts | 82° |
| 2026-05-08 12:39 | 26.26121 | 50.64989 | 22 ft | 15 kts | 342° |
| 2026-05-08 12:40 | 26.26195 | 50.64902 | 21 ft | 16 kts | 303° |
| 2026-05-08 12:40 | 26.26263 | 50.64786 | 18 ft | 19 kts | 302° |
| 2026-05-08 12:40 | 26.26385 | 50.64575 | 16 ft | 64 kts | 303° |
| 2026-05-08 12:40 | 26.26796 | 50.63867 | 22 ft | 151 kts | 303° |
| 2026-05-08 12:41 | 26.27490 | 50.62717 | 631 ft | 198 kts | 304° |
| 2026-05-08 12:41 | 26.28277 | 50.61335 | 1898 ft | 224 kts | 302° |
| 2026-05-08 12:41 | 26.28808 | 50.59681 | 2819 ft | 238 kts | 276° |
| 2026-05-08 12:41 | 26.28354 | 50.57821 | 3381 ft | 268 kts | 241° |
| 2026-05-08 12:42 | 26.26901 | 50.56439 | 4087 ft | 285 kts | 205° |
| 2026-05-08 12:42 | 26.24944 | 50.56148 | 4984 ft | 297 kts | 171° |
| 2026-05-08 12:42 | 26.23086 | 50.57059 | 5997 ft | 291 kts | 139° |
| 2026-05-08 12:42 | 26.21939 | 50.58850 | 6756 ft | 286 kts | 108° |
| 2026-05-08 12:43 | 26.21809 | 50.61045 | 7377 ft | 288 kts | 75° |
| 2026-05-08 12:43 | 26.22753 | 50.62992 | 7996 ft | 289 kts | 43° |
| 2026-05-08 12:43 | 26.24485 | 50.64089 | 8580 ft | 291 kts | 11° |
| 2026-05-08 12:43 | 26.26486 | 50.64163 | 9202 ft | 293 kts | 356° |
| 2026-05-08 12:44 | 26.28518 | 50.64412 | 9776 ft | 300 kts | 20° |
| 2026-05-08 12:44 | 26.30240 | 50.65741 | 10264 ft | 311 kts | 49° |
| 2026-05-08 12:44 | 26.31255 | 50.67922 | 10482 ft | 329 kts | 77° |
| 2026-05-08 12:44 | 26.31381 | 50.70534 | 10686 ft | 346 kts | 94° |
| 2026-05-08 12:45 | 26.31140 | 50.73258 | 10893 ft | 361 kts | 97° |
| 2026-05-08 12:45 | 26.30826 | 50.76088 | 11178 ft | 373 kts | 97° |
| 2026-05-08 12:45 | 26.30571 | 50.78988 | 11647 ft | 378 kts | 95° |
| 2026-05-08 12:45 | 26.30456 | 50.80932 | 12014 ft | 380 kts | 94° |
| 2026-05-08 12:46 | 26.30333 | 50.84860 | 12814 ft | 384 kts | 92° |
| 2026-05-08 12:46 | 26.30304 | 50.87851 | 13354 ft | 388 kts | 92° |
| 2026-05-08 12:46 | 26.30304 | 50.90867 | 13737 ft | 390 kts | 92° |
| 2026-05-08 12:46 | 26.30042 | 50.93902 | 13817 ft | 396 kts | 104° |
| 2026-05-08 12:47 | 26.29501 | 50.95855 | 13832 ft | 399 kts | 112° |
| 2026-05-08 12:47 | 26.28409 | 50.98693 | 13831 ft | 399 kts | 117° |
| 2026-05-08 12:47 | 26.27137 | 51.01443 | 13832 ft | 398 kts | 121° |
| 2026-05-08 12:47 | 26.25772 | 51.04136 | 13834 ft | 398 kts | 122° |
| 2026-05-08 12:48 | 26.24373 | 51.06802 | 13834 ft | 398 kts | 122° |
| 2026-05-08 12:48 | 26.22977 | 51.09458 | 13831 ft | 398 kts | 122° |
| 2026-05-08 12:48 | 26.21582 | 51.12152 | 13832 ft | 399 kts | 122° |
| 2026-05-08 12:48 | 26.20231 | 51.14795 | 13836 ft | 398 kts | 122° |
| 2026-05-08 12:49 | 26.18865 | 51.17479 | 13833 ft | 398 kts | 122° |
| 2026-05-08 12:49 | 26.17500 | 51.20176 | 13829 ft | 399 kts | 122° |
| 2026-05-08 12:49 | 26.16145 | 51.22859 | 13834 ft | 399 kts | 122° |
| 2026-05-08 12:49 | 26.14785 | 51.25553 | 13830 ft | 399 kts | 122° |
| 2026-05-08 12:50 | 26.13426 | 51.28244 | 13832 ft | 399 kts | 122° |
| 2026-05-08 12:50 | 26.12069 | 51.30934 | 13831 ft | 399 kts | 122° |
| 2026-05-08 12:50 | 26.10707 | 51.33630 | 13810 ft | 398 kts | 122° |
| 2026-05-08 12:50 | 26.09361 | 51.36292 | 13811 ft | 398 kts | 122° |
| 2026-05-08 12:51 | 26.08001 | 51.38983 | 13811 ft | 398 kts | 122° |
| 2026-05-08 12:51 | 26.05275 | 51.44365 | 13830 ft | 399 kts | 122° |
| 2026-05-08 12:51 | 26.03914 | 51.47053 | 13830 ft | 398 kts | 122° |
| 2026-05-08 12:52 | 26.02570 | 51.49706 | 13810 ft | 398 kts | 122° |
| 2026-05-08 12:52 | 25.99848 | 51.55070 | 13830 ft | 398 kts | 122° |
| 2026-05-08 12:52 | 25.98487 | 51.57748 | 13830 ft | 398 kts | 122° |
| 2026-05-08 12:53 | 25.97126 | 51.60425 | 13820 ft | 397 kts | 122° |
| 2026-05-08 12:53 | 25.95782 | 51.63068 | 13815 ft | 397 kts | 122° |
| 2026-05-08 12:53 | 25.94419 | 51.65747 | 13821 ft | 397 kts | 122° |
| 2026-05-08 12:53 | 25.93062 | 51.68415 | 13815 ft | 397 kts | 122° |
| 2026-05-08 12:54 | 25.91698 | 51.71094 | 13814 ft | 397 kts | 122° |
| 2026-05-08 12:54 | 25.90349 | 51.73771 | 13808 ft | 398 kts | 122° |
| 2026-05-08 12:54 | 25.89020 | 51.76473 | 13830 ft | 398 kts | 121° |
| 2026-05-08 12:54 | 25.87701 | 51.79173 | 13829 ft | 398 kts | 121° |
| 2026-05-08 12:55 | 25.86401 | 51.81834 | 13829 ft | 398 kts | 121° |
| 2026-05-08 12:55 | 25.85080 | 51.84535 | 13811 ft | 398 kts | 121° |
| 2026-05-08 12:55 | 25.83777 | 51.87248 | 13810 ft | 398 kts | 120° |
| 2026-05-08 12:55 | 25.82573 | 51.90023 | 13812 ft | 399 kts | 118° |
| 2026-05-08 12:56 | 25.81413 | 51.92781 | 13809 ft | 399 kts | 118° |
| 2026-05-08 12:56 | 25.80244 | 51.95572 | 13819 ft | 399 kts | 118° |
| 2026-05-08 12:56 | 25.79069 | 51.98369 | 13814 ft | 399 kts | 118° |
| 2026-05-08 12:56 | 25.77892 | 52.01167 | 13829 ft | 399 kts | 118° |
| 2026-05-08 12:57 | 25.76717 | 52.03959 | 13811 ft | 399 kts | 118° |
| 2026-05-08 12:57 | 25.75541 | 52.06752 | 13805 ft | 399 kts | 118° |
| 2026-05-08 12:57 | 25.74364 | 52.09544 | 13802 ft | 399 kts | 118° |
| 2026-05-08 12:57 | 25.73185 | 52.12337 | 13802 ft | 399 kts | 118° |
| 2026-05-08 12:58 | 25.72011 | 52.15121 | 13805 ft | 398 kts | 118° |
| 2026-05-08 12:58 | 25.70835 | 52.17904 | 13799 ft | 399 kts | 118° |
| 2026-05-08 12:58 | 25.69657 | 52.20692 | 13804 ft | 399 kts | 118° |
| 2026-05-08 12:58 | 25.68495 | 52.23442 | 13806 ft | 399 kts | 118° |
| 2026-05-08 12:59 | 25.67314 | 52.26234 | 13813 ft | 398 kts | 118° |
| 2026-05-08 12:59 | 25.66134 | 52.29023 | 13802 ft | 398 kts | 118° |
| 2026-05-08 12:59 | 25.64955 | 52.31803 | 13816 ft | 398 kts | 118° |
| 2026-05-08 12:59 | 25.63775 | 52.34586 | 13801 ft | 399 kts | 118° |
| 2026-05-08 13:00 | 25.62597 | 52.37364 | 13806 ft | 398 kts | 118° |
| 2026-05-08 13:00 | 25.61357 | 52.40107 | 13803 ft | 397 kts | 121° |
| 2026-05-08 13:00 | 25.60023 | 52.42789 | 13803 ft | 397 kts | 122° |
| 2026-05-08 13:00 | 25.58672 | 52.45455 | 13802 ft | 397 kts | 122° |
| 2026-05-08 13:01 | 25.57323 | 52.48116 | 13804 ft | 397 kts | 122° |
| 2026-05-08 13:01 | 25.55990 | 52.50752 | 13805 ft | 396 kts | 122° |
| 2026-05-08 13:01 | 25.54665 | 52.53376 | 13805 ft | 379 kts | 122° |
| 2026-05-08 13:01 | 25.53415 | 52.55854 | 13814 ft | 357 kts | 122° |
| 2026-05-08 13:02 | 25.52239 | 52.58185 | 13814 ft | 337 kts | 122° |
| 2026-05-08 13:02 | 25.51126 | 52.60386 | 13820 ft | 319 kts | 122° |
| 2026-05-08 13:02 | 25.49936 | 52.62396 | 13809 ft | 306 kts | 134° |
| 2026-05-08 13:02 | 25.48306 | 52.63850 | 13804 ft | 299 kts | 155° |
| 2026-05-08 13:03 | 25.46331 | 52.64481 | 13803 ft | 296 kts | 177° |
| 2026-05-08 13:03 | 25.44301 | 52.64215 | 13805 ft | 295 kts | 198° |
| 2026-05-08 13:03 | 25.42428 | 52.63268 | 13798 ft | 297 kts | 207° |
| 2026-05-08 13:03 | 25.40643 | 52.62163 | 13810 ft | 298 kts | 208° |
| 2026-05-08 13:04 | 25.38847 | 52.61028 | 13808 ft | 298 kts | 208° |
| 2026-05-08 13:04 | 25.37037 | 52.59894 | 13799 ft | 298 kts | 208° |
| 2026-05-08 13:04 | 25.35243 | 52.58749 | 13802 ft | 298 kts | 212° |
| 2026-05-08 13:04 | 25.33682 | 52.57243 | 13799 ft | 301 kts | 230° |
| 2026-05-08 13:05 | 25.32715 | 52.55192 | 13803 ft | 305 kts | 252° |
| 2026-05-08 13:05 | 25.32565 | 52.52843 | 13801 ft | 313 kts | 275° |
| 2026-05-08 13:05 | 25.33267 | 52.50493 | 13676 ft | 342 kts | 292° |
| 2026-05-08 13:05 | 25.34458 | 52.48031 | 13388 ft | 380 kts | 296° |
| 2026-05-08 13:06 | 25.35798 | 52.45454 | 13113 ft | 390 kts | 297° |
| 2026-05-08 13:06 | 25.37148 | 52.42852 | 12857 ft | 389 kts | 296° |
| 2026-05-08 13:06 | 25.38480 | 52.40257 | 12606 ft | 386 kts | 296° |
| 2026-05-08 13:06 | 25.39780 | 52.37700 | 12360 ft | 384 kts | 296° |
| 2026-05-08 13:07 | 25.41078 | 52.35126 | 12117 ft | 382 kts | 296° |
| 2026-05-08 13:07 | 25.42368 | 52.32557 | 11865 ft | 381 kts | 296° |
| 2026-05-08 13:07 | 25.43653 | 52.29997 | 11604 ft | 380 kts | 296° |
| 2026-05-08 13:07 | 25.44930 | 52.27446 | 11349 ft | 377 kts | 296° |
| 2026-05-08 13:08 | 25.46202 | 52.24908 | 11125 ft | 375 kts | 297° |
| 2026-05-08 13:08 | 25.47461 | 52.22390 | 10870 ft | 374 kts | 297° |
| 2026-05-08 13:08 | 25.48720 | 52.19868 | 10609 ft | 372 kts | 297° |
| 2026-05-08 13:08 | 25.49969 | 52.17369 | 10363 ft | 370 kts | 297° |
| 2026-05-08 13:09 | 25.51198 | 52.14908 | 10120 ft | 369 kts | 297° |
| 2026-05-08 13:09 | 25.52434 | 52.12434 | 9862 ft | 363 kts | 298° |
| 2026-05-08 13:09 | 25.53632 | 52.10031 | 9605 ft | 348 kts | 298° |
| 2026-05-08 13:09 | 25.54775 | 52.07736 | 9398 ft | 333 kts | 298° |
| 2026-05-08 13:10 | 25.55872 | 52.05527 | 9165 ft | 321 kts | 298° |
| 2026-05-08 13:10 | 25.56929 | 52.03399 | 8918 ft | 309 kts | 299° |
| 2026-05-08 13:10 | 25.57946 | 52.01353 | 8672 ft | 299 kts | 299° |
| 2026-05-08 13:10 | 25.58935 | 51.99365 | 8432 ft | 290 kts | 299° |
| 2026-05-08 13:11 | 25.59772 | 51.97343 | 8183 ft | 289 kts | 288° |
| 2026-05-08 13:11 | 25.60114 | 51.95160 | 7937 ft | 289 kts | 271° |
| 2026-05-08 13:11 | 25.59823 | 51.92966 | 7680 ft | 289 kts | 253° |
| 2026-05-08 13:11 | 25.58917 | 51.90987 | 7440 ft | 289 kts | 234° |
| 2026-05-08 13:12 | 25.57538 | 51.89366 | 7193 ft | 289 kts | 224° |
| 2026-05-08 13:12 | 25.56035 | 51.87925 | 6943 ft | 289 kts | 221° |
| 2026-05-08 13:12 | 25.54496 | 51.86487 | 6688 ft | 288 kts | 221° |
| 2026-05-08 13:12 | 25.52970 | 51.85057 | 6433 ft | 286 kts | 222° |
| 2026-05-08 13:13 | 25.51461 | 51.83631 | 6196 ft | 284 kts | 222° |
| 2026-05-08 13:13 | 25.50044 | 51.82120 | 5935 ft | 282 kts | 233° |
| 2026-05-08 13:13 | 25.49137 | 51.80222 | 5676 ft | 279 kts | 256° |
| 2026-05-08 13:13 | 25.48851 | 51.78111 | 5440 ft | 277 kts | 266° |
| 2026-05-08 13:14 | 25.48745 | 51.75986 | 5196 ft | 276 kts | 269° |
| 2026-05-08 13:14 | 25.48668 | 51.73891 | 4942 ft | 274 kts | 269° |
| 2026-05-08 13:14 | 25.48584 | 51.71782 | 4802 ft | 274 kts | 269° |
| 2026-05-08 13:14 | 25.48493 | 51.69678 | 4673 ft | 273 kts | 268° |
| 2026-05-08 13:15 | 25.48399 | 51.67582 | 4564 ft | 272 kts | 269° |
| 2026-05-08 13:15 | 25.48304 | 51.65495 | 4433 ft | 272 kts | 268° |
| 2026-05-08 13:15 | 25.48207 | 51.63403 | 4302 ft | 272 kts | 269° |
| 2026-05-08 13:15 | 25.48109 | 51.61318 | 4183 ft | 270 kts | 269° |
| 2026-05-08 13:16 | 25.48006 | 51.59242 | 4065 ft | 270 kts | 268° |
| 2026-05-08 13:16 | 25.47902 | 51.57163 | 3935 ft | 270 kts | 269° |
| 2026-05-08 13:16 | 25.47800 | 51.55089 | 3807 ft | 269 kts | 269° |
| 2026-05-08 13:16 | 25.47699 | 51.53017 | 3682 ft | 269 kts | 269° |
| 2026-05-08 13:17 | 25.47598 | 51.50952 | 3554 ft | 268 kts | 269° |
| 2026-05-08 13:17 | 25.47497 | 51.48897 | 3429 ft | 266 kts | 269° |
| 2026-05-08 13:17 | 25.47395 | 51.46845 | 3301 ft | 267 kts | 269° |
| 2026-05-08 13:17 | 25.47260 | 51.44801 | 3177 ft | 266 kts | 264° |
| 2026-05-08 13:18 | 25.46747 | 51.42822 | 3045 ft | 271 kts | 246° |
| 2026-05-08 13:18 | 25.45613 | 51.41152 | 2919 ft | 276 kts | 224° |
| 2026-05-08 13:18 | 25.43995 | 51.40094 | 2796 ft | 274 kts | 201° |
| 2026-05-08 13:18 | 25.42146 | 51.39802 | 2682 ft | 266 kts | 178° |
| 2026-05-08 13:19 | 25.40357 | 51.40236 | 2565 ft | 264 kts | 161° |
| 2026-05-08 13:19 | 25.38646 | 51.40969 | 2511 ft | 265 kts | 158° |
| 2026-05-08 13:19 | 25.36940 | 51.41750 | 2503 ft | 265 kts | 158° |
| 2026-05-08 13:19 | 25.35234 | 51.42527 | 2505 ft | 265 kts | 158° |
| 2026-05-08 13:20 | 25.33540 | 51.43295 | 2495 ft | 263 kts | 160° |
| 2026-05-08 13:20 | 25.31860 | 51.44051 | 2496 ft | 256 kts | 161° |
| 2026-05-08 13:20 | 25.30216 | 51.44784 | 2496 ft | 254 kts | 161° |
| 2026-05-08 13:20 | 25.28574 | 51.45509 | 2495 ft | 253 kts | 161° |
| 2026-05-08 13:21 | 25.26940 | 51.46230 | 2496 ft | 253 kts | 161° |
| 2026-05-08 13:21 | 25.25304 | 51.46953 | 2495 ft | 253 kts | 161° |
| 2026-05-08 13:21 | 25.23673 | 51.47673 | 2498 ft | 252 kts | 161° |
| 2026-05-08 13:21 | 25.22035 | 51.48398 | 2502 ft | 254 kts | 161° |
| 2026-05-08 13:22 | 25.20419 | 51.49111 | 2502 ft | 252 kts | 161° |
| 2026-05-08 13:22 | 25.18784 | 51.49830 | 2491 ft | 253 kts | 161° |
| 2026-05-08 13:22 | 25.17148 | 51.50552 | 2495 ft | 253 kts | 161° |
| 2026-05-08 13:22 | 25.15513 | 51.51276 | 2498 ft | 253 kts | 161° |
| 2026-05-08 13:23 | 25.13885 | 51.51996 | 2501 ft | 252 kts | 161° |
| 2026-05-08 13:23 | 25.12246 | 51.52714 | 2492 ft | 253 kts | 161° |
| 2026-05-08 13:23 | 25.10601 | 51.53437 | 2493 ft | 253 kts | 161° |
| 2026-05-08 13:23 | 25.08967 | 51.54157 | 2501 ft | 253 kts | 161° |
| 2026-05-08 13:24 | 25.07350 | 51.54872 | 2494 ft | 244 kts | 159° |
| 2026-05-08 13:24 | 25.05838 | 51.55539 | 2509 ft | 230 kts | 159° |
| 2026-05-08 13:24 | 25.04359 | 51.56188 | 2509 ft | 227 kts | 158° |
| 2026-05-08 13:24 | 25.02956 | 51.56806 | 2561 ft | 207 kts | 158° |
| 2026-05-08 13:25 | 25.01696 | 51.57363 | 2547 ft | 183 kts | 158° |
| 2026-05-08 13:25 | 25.00584 | 51.57856 | 2517 ft | 163 kts | 158° |
| 2026-05-08 13:25 | 24.99562 | 51.58303 | 2504 ft | 155 kts | 158° |
| 2026-05-08 13:25 | 24.98562 | 51.58738 | 2505 ft | 155 kts | 158° |
| 2026-05-08 13:26 | 24.97550 | 51.59173 | 2500 ft | 156 kts | 159° |
| 2026-05-08 13:26 | 24.96530 | 51.59610 | 2508 ft | 158 kts | 159° |
| 2026-05-08 13:26 | 24.95507 | 51.60049 | 2484 ft | 157 kts | 159° |
| 2026-05-08 13:26 | 24.94490 | 51.60484 | 2489 ft | 156 kts | 159° |
| 2026-05-08 13:27 | 24.93491 | 51.60916 | 2493 ft | 157 kts | 159° |
| 2026-05-08 13:27 | 24.92477 | 51.61350 | 2495 ft | 156 kts | 160° |
| 2026-05-08 13:27 | 24.91464 | 51.61781 | 2495 ft | 155 kts | 160° |
| 2026-05-08 13:27 | 24.90470 | 51.62236 | 2490 ft | 155 kts | 150° |
| 2026-05-08 13:28 | 24.89847 | 51.63154 | 2484 ft | 151 kts | 98° |
| 2026-05-08 13:28 | 24.89889 | 51.64283 | 2507 ft | 147 kts | 73° |
| 2026-05-08 13:28 | 24.90145 | 51.65369 | 2501 ft | 146 kts | 69° |
| 2026-05-08 13:28 | 24.90431 | 51.66446 | 2502 ft | 147 kts | 68° |
| 2026-05-08 13:29 | 24.90722 | 51.67523 | 2502 ft | 147 kts | 69° |
| 2026-05-08 13:29 | 24.91016 | 51.68604 | 2503 ft | 147 kts | 68° |
| 2026-05-08 13:29 | 24.91309 | 51.69681 | 2491 ft | 147 kts | 68° |
| 2026-05-08 13:29 | 24.91882 | 51.70541 | 2487 ft | 138 kts | 22° |
| 2026-05-08 13:30 | 24.92785 | 51.70790 | 2511 ft | 133 kts | 6° |
| 2026-05-08 13:30 | 24.93696 | 51.70975 | 2502 ft | 133 kts | 6° |
| 2026-05-08 13:30 | 24.94600 | 51.71143 | 2503 ft | 134 kts | 5° |
| 2026-05-08 13:30 | 24.95522 | 51.71297 | 2488 ft | 134 kts | 4° |
| 2026-05-08 13:31 | 24.96448 | 51.71438 | 2490 ft | 134 kts | 3° |
| 2026-05-08 13:31 | 24.97373 | 51.71574 | 2490 ft | 133 kts | 3° |
| 2026-05-08 13:31 | 24.98293 | 51.71697 | 2492 ft | 133 kts | 3° |
| 2026-05-08 13:31 | 24.99216 | 51.71820 | 2493 ft | 134 kts | 3° |
| 2026-05-08 13:32 | 25.00140 | 51.71943 | 2496 ft | 133 kts | 3° |
| 2026-05-08 13:32 | 25.01062 | 51.72065 | 2495 ft | 133 kts | 3° |
| 2026-05-08 13:32 | 25.01984 | 51.72183 | 2498 ft | 133 kts | 2° |
| 2026-05-08 13:32 | 25.02901 | 51.72253 | 2492 ft | 130 kts | 354° |
| 2026-05-08 13:33 | 25.03793 | 51.72128 | 2496 ft | 129 kts | 345° |
| 2026-05-08 13:33 | 25.04368 | 51.71959 | 2499 ft | 129 kts | 340° |
| 2026-05-08 13:33 | 25.05216 | 51.71629 | 2496 ft | 130 kts | 336° |
| 2026-05-08 13:33 | 25.06052 | 51.71257 | 2496 ft | 129 kts | 336° |
| 2026-05-08 13:34 | 25.06885 | 51.70889 | 2498 ft | 129 kts | 336° |
| 2026-05-08 13:34 | 25.07991 | 51.70407 | 2497 ft | 129 kts | 336° |
| 2026-05-08 13:34 | 25.08558 | 51.70160 | 2497 ft | 130 kts | 336° |
| 2026-05-08 13:34 | 25.09398 | 51.69796 | 2495 ft | 129 kts | 336° |
| 2026-05-08 13:35 | 25.10229 | 51.69434 | 2500 ft | 130 kts | 337° |
| 2026-05-08 13:35 | 25.11067 | 51.69067 | 2491 ft | 129 kts | 336° |
| 2026-05-08 13:35 | 25.11905 | 51.68699 | 2496 ft | 130 kts | 336° |
| 2026-05-08 13:35 | 25.12742 | 51.68329 | 2495 ft | 129 kts | 338° |
| 2026-05-08 13:36 | 25.13579 | 51.67961 | 2494 ft | 129 kts | 337° |
| 2026-05-08 13:36 | 25.14412 | 51.67591 | 2417 ft | 130 kts | 337° |
| 2026-05-08 13:36 | 25.15244 | 51.67220 | 2201 ft | 128 kts | 337° |
| 2026-05-08 13:36 | 25.16065 | 51.66859 | 2032 ft | 127 kts | 338° |
| 2026-05-08 13:37 | 25.16884 | 51.66499 | 1851 ft | 127 kts | 339° |
| 2026-05-08 13:37 | 25.17707 | 51.66137 | 1688 ft | 128 kts | 339° |
| 2026-05-08 13:37 | 25.18517 | 51.65777 | 1512 ft | 127 kts | 339° |
| 2026-05-08 13:37 | 25.19335 | 51.65417 | 1351 ft | 126 kts | 339° |
| 2026-05-08 13:38 | 25.20149 | 51.65057 | 1172 ft | 125 kts | 339° |
| 2026-05-08 13:38 | 25.20961 | 51.64700 | 1011 ft | 125 kts | 339° |
| 2026-05-08 13:38 | 25.21771 | 51.64341 | 833 ft | 125 kts | 339° |
| 2026-05-08 13:38 | 25.22565 | 51.63986 | 678 ft | 124 kts | 339° |
| 2026-05-08 13:39 | 25.23365 | 51.63631 | 546 ft | 124 kts | 337° |
| 2026-05-08 13:39 | 25.24165 | 51.63253 | 416 ft | 125 kts | 337° |
| 2026-05-08 13:39 | 25.24973 | 51.62890 | 261 ft | 126 kts | 338° |
| 2026-05-08 13:39 | 25.25784 | 51.62534 | 51 ft | 126 kts | 340° |
| 2026-05-08 13:40 | 25.26548 | 51.62221 | 27 ft | 105 kts | 338° |
| 2026-05-08 13:40 | 25.27053 | 51.62011 | 22 ft | 51 kts | 340° |
| 2026-05-08 13:40 | 25.27342 | 51.61862 | 28 ft | 44 kts | 320° |
| 2026-05-08 13:40 | 25.27530 | 51.61624 | 28 ft | 39 kts | 301° |
| 2026-05-08 13:41 | 25.27489 | 51.61407 | 24 ft | 29 kts | 249° |
| 2026-05-08 13:41 | 25.27417 | 51.61196 | 25 ft | 29 kts | 250° |
| 2026-05-08 13:41 | 25.27297 | 51.61080 | 29 ft | 24 kts | 179° |
| 2026-05-08 13:41 | 25.27134 | 51.61041 | 29 ft | 25 kts | 194° |
| 2026-05-08 13:42 | 25.27043 | 51.61052 | 26 ft | 0 kts | 160° |